createdAt,value
2023-03-27T00:02:20.231Z,27.05
2023-03-27T00:05:21.955Z,24.08
2023-03-27T00:08:24.678Z,27.77
2023-03-27T00:11:26.499Z,23.70
2023-03-27T00:14:28.506Z,23.20
2023-03-27T00:17:30.199Z,22.98
2023-03-27T00:20:42.437Z,24.65
2023-03-27T00:23:43.980Z,23.52
2023-03-27T00:26:45.485Z,21.58
2023-03-27T00:29:47.055Z,21.45
2023-03-27T00:32:49.359Z,19.58
2023-03-27T00:35:51.233Z,21.30
2023-03-27T00:38:53.112Z,20.60
2023-03-27T00:41:55.502Z,23.90
2023-03-27T00:44:57.393Z,20.67
2023-03-27T00:48:06.653Z,22.20
2023-03-27T00:51:09.083Z,19.55
2023-03-27T00:54:12.574Z,20.48
2023-03-27T00:57:19.171Z,18.17
2023-03-27T01:03:29.413Z,19.35
2023-03-27T01:06:31.777Z,19.33
2023-03-27T01:09:34.264Z,19.80
2023-03-27T01:12:54.027Z,17.60
2023-03-27T01:16:02.474Z,20.90
2023-03-27T01:19:16.610Z,16.67
2023-03-27T01:22:45.994Z,19.13
2023-03-27T01:26:07.197Z,16.90
2023-03-27T01:29:14.927Z,14.60
2023-03-27T01:32:31.602Z,16.52
2023-03-27T01:35:39.143Z,17.88
2023-03-27T01:39:02.738Z,15.30
2023-03-27T01:42:06.241Z,15.35
2023-03-27T01:45:18.437Z,18.08
2023-03-27T01:48:42.611Z,14.43
2023-03-27T01:51:49.986Z,15.98
2023-03-27T01:54:58.284Z,16.13
2023-03-27T01:58:05.097Z,13.27
2023-03-27T02:01:11.056Z,13.30
2023-03-27T02:04:18.302Z,15.18
2023-03-27T02:07:28.172Z,13.15
2023-03-27T02:10:37.074Z,13.27
2023-03-27T02:13:53.139Z,11.38
2023-03-27T02:17:03.587Z,14.88
2023-03-27T02:20:12.823Z,13.40
2023-03-27T02:23:14.551Z,13.18
2023-03-27T02:26:16.413Z,14.00
2023-03-27T02:29:39.231Z,11.60
2023-03-27T02:32:56.713Z,13.75
2023-03-27T02:36:21.023Z,14.65
2023-03-27T02:39:39.508Z,10.90
2023-03-27T02:43:03.970Z,12.10
2023-03-27T02:46:31.105Z,11.45
2023-03-27T02:49:41.770Z,11.93
2023-03-27T02:52:51.151Z,11.90
2023-03-27T02:55:57.172Z,11.63
2023-03-27T02:59:13.137Z,11.77
2023-03-27T03:02:24.689Z,10.10
2023-03-27T03:05:32.512Z,11.68
2023-03-27T03:08:38.178Z,9.23
2023-03-27T03:11:54.336Z,11.05
2023-03-27T03:14:56.594Z,11.65
2023-03-27T03:17:58.104Z,8.98
2023-03-27T03:21:00.024Z,9.50
2023-03-27T03:24:02.846Z,10.52
2023-03-27T03:27:05.705Z,9.73
2023-03-27T03:30:17.536Z,9.23
2023-03-27T03:33:42.385Z,9.35
2023-03-27T03:36:45.082Z,9.20
2023-03-27T03:39:46.963Z,10.25
2023-03-27T03:42:51.764Z,8.25
2023-03-27T03:45:58.361Z,8.60
2023-03-27T03:49:01.061Z,10.68
2023-03-27T03:52:03.374Z,9.63
2023-03-27T03:55:09.815Z,11.93
2023-03-27T03:58:12.119Z,8.75
2023-03-27T04:01:14.629Z,8.55
2023-03-27T04:04:23.151Z,10.52
2023-03-27T04:07:40.974Z,8.82
2023-03-27T04:11:02.657Z,9.77
2023-03-27T04:14:20.900Z,8.52
2023-03-27T04:17:26.482Z,9.43
2023-03-27T04:20:34.603Z,7.30
2023-03-27T04:23:38.307Z,7.97
2023-03-27T04:26:39.912Z,8.80
2023-03-27T04:30:02.240Z,8.02
2023-03-27T04:33:23.058Z,10.63
2023-03-27T04:36:44.953Z,7.38
2023-03-27T04:39:49.754Z,7.70
2023-03-27T04:42:55.847Z,9.45
2023-03-27T04:45:57.599Z,6.88
2023-03-27T04:48:59.542Z,7.35
2023-03-27T04:52:21.339Z,6.78
2023-03-27T04:55:25.727Z,7.75
2023-03-27T04:58:28.338Z,7.28
2023-03-27T05:01:31.432Z,6.57
2023-03-27T05:04:49.074Z,7.72
2023-03-27T05:07:54.101Z,6.72
2023-03-27T05:10:58.854Z,7.32
2023-03-27T05:14:01.707Z,6.55
2023-03-27T05:17:07.617Z,7.13
2023-03-27T05:20:16.973Z,7.53
2023-03-27T05:23:18.781Z,6.18
2023-03-27T05:26:20.783Z,6.88
2023-03-27T05:29:26.727Z,6.30
2023-03-27T05:32:36.602Z,6.10
2023-03-27T05:35:52.568Z,7.00
2023-03-27T05:38:54.556Z,5.60
2023-03-27T05:42:05.554Z,7.20
2023-03-27T05:45:07.473Z,5.88
2023-03-27T05:48:10.451Z,5.38
2023-03-27T05:51:15.894Z,6.28
2023-03-27T05:54:17.501Z,6.20
2023-03-27T05:57:32.936Z,6.22
2023-03-27T06:00:36.438Z,5.97
2023-03-27T06:03:38.651Z,5.22
2023-03-27T06:06:47.106Z,5.88
2023-03-27T06:09:49.181Z,5.85
2023-03-27T06:13:20.431Z,6.43
2023-03-27T06:16:41.519Z,4.85
2023-03-27T06:20:11.338Z,5.60
2023-03-27T06:23:13.312Z,5.18
2023-03-27T06:26:15.772Z,5.90
2023-03-27T06:29:18.194Z,5.28
2023-03-27T06:32:22.580Z,6.03
2023-03-27T06:35:28.948Z,5.45
2023-03-27T06:38:37.954Z,5.72
2023-03-27T06:41:40.085Z,5.70
2023-03-27T06:44:54.911Z,4.70
2023-03-27T06:48:21.488Z,5.00
2023-03-27T06:51:26.967Z,5.03
2023-03-27T06:54:29.261Z,6.28
2023-03-27T06:57:31.019Z,4.35
2023-03-27T07:00:37.369Z,5.35
2023-03-27T07:03:53.430Z,3.58
2023-03-27T07:07:24.740Z,4.78
2023-03-27T07:10:26.651Z,5.32
2023-03-27T07:13:29.803Z,5.03
2023-03-27T07:16:34.515Z,4.78
2023-03-27T07:19:36.151Z,4.05
2023-03-27T07:22:45.146Z,4.65
2023-03-27T07:25:59.848Z,5.03
2023-03-27T07:29:21.576Z,4.55
2023-03-27T07:32:36.739Z,4.75
2023-03-27T07:35:45.167Z,4.57
2023-03-27T07:42:11.825Z,4.35
2023-03-27T07:45:41.145Z,4.80
2023-03-27T07:48:42.663Z,6.07
2023-03-27T07:51:51.292Z,4.20
2023-03-27T07:54:53.051Z,4.55
2023-03-27T07:58:02.264Z,4.15
2023-03-27T08:01:07.799Z,5.55
2023-03-27T08:04:10.890Z,4.25
2023-03-27T08:07:15.027Z,4.90
2023-03-27T08:10:17.806Z,3.95
2023-03-27T08:13:29.588Z,3.33
2023-03-27T08:16:36.977Z,4.60
2023-03-27T08:19:38.591Z,3.92
2023-03-27T08:22:41.347Z,3.78
2023-03-27T08:26:09.456Z,4.47
2023-03-27T08:29:20.467Z,6.32
2023-03-27T08:32:22.821Z,3.25
2023-03-27T08:35:27.097Z,4.45
2023-03-27T08:38:29.228Z,5.22
2023-03-27T08:41:49.891Z,6.50
2023-03-27T08:48:21.861Z,102.70
2023-03-27T08:51:30.472Z,148.77
2023-03-27T08:54:33.902Z,156.18
2023-03-27T08:57:36.217Z,144.65
2023-03-27T09:00:47.520Z,137.32
2023-03-27T09:04:15.242Z,126.68
2023-03-27T09:07:24.534Z,132.32
2023-03-27T09:10:49.449Z,117.15
2023-03-27T09:14:40.370Z,112.72
2023-03-27T09:17:51.730Z,156.52
2023-03-27T09:20:58.505Z,253.77
2023-03-27T09:24:06.232Z,285.48
2023-03-27T09:27:49.312Z,288.55
2023-03-27T09:31:20.942Z,265.48
2023-03-27T09:34:27.488Z,254.75
2023-03-27T09:37:29.608Z,232.83
2023-03-27T09:40:43.741Z,242.45
2023-03-27T09:43:55.615Z,207.38
2023-03-27T09:47:06.806Z,185.38
2023-03-27T09:50:32.578Z,187.77
2023-03-27T09:53:58.143Z,189.65
2023-03-27T09:57:12.594Z,185.57
2023-03-27T10:00:30.768Z,178.73
2023-03-27T10:03:59.797Z,175.82
2023-03-27T10:07:23.548Z,155.50
2023-03-27T10:10:45.777Z,163.70
2023-03-27T10:14:02.135Z,151.10
2023-03-27T10:17:05.128Z,145.18
2023-03-27T10:20:14.093Z,141.57
2023-03-27T10:23:29.004Z,136.63
2023-03-27T10:26:32.184Z,129.18
2023-03-27T10:29:36.489Z,120.40
2023-03-27T10:32:45.075Z,131.38
2023-03-27T10:36:09.542Z,125.45
2023-03-27T10:39:13.935Z,123.35
2023-03-27T10:42:32.933Z,113.90
2023-03-27T10:45:45.714Z,110.22
2023-03-27T10:49:06.514Z,102.22
2023-03-27T10:52:19.473Z,104.28
2023-03-27T10:56:10.644Z,100.18
2023-03-27T10:59:31.159Z,89.00
2023-03-27T11:03:00.270Z,85.72
2023-03-27T11:06:07.747Z,85.85
2023-03-27T11:09:23.225Z,79.47
2023-03-27T11:12:35.310Z,82.57
2023-03-27T11:15:43.626Z,71.27
2023-03-27T11:19:11.021Z,72.00
2023-03-27T11:22:47.999Z,66.30
2023-03-27T11:26:11.003Z,64.47
2023-03-27T11:29:30.135Z,57.83
2023-03-27T11:32:40.733Z,64.13
2023-03-27T11:35:51.902Z,55.85
2023-03-27T11:39:21.214Z,61.50
2023-03-27T11:42:27.821Z,56.73
2023-03-27T11:46:07.984Z,55.37
2023-03-27T11:49:31.142Z,50.65
2023-03-27T11:52:47.789Z,52.30
2023-03-27T11:56:19.429Z,49.28
2023-03-27T11:59:50.068Z,43.88
2023-03-27T12:03:17.095Z,45.10
2023-03-27T12:06:30.554Z,41.05
2023-03-27T12:09:57.019Z,45.20
2023-03-27T12:13:38.643Z,39.08
2023-03-27T12:17:15.849Z,44.65
2023-03-27T12:20:58.775Z,40.70
2023-03-27T12:24:27.588Z,42.35
2023-03-27T12:28:06.425Z,37.70
2023-03-27T12:31:55.692Z,37.97
2023-03-27T12:35:03.497Z,41.15
2023-03-27T12:38:22.939Z,36.20
2023-03-27T12:41:26.005Z,32.92
2023-03-27T12:45:02.913Z,34.80
2023-03-27T12:48:10.543Z,33.97
2023-03-27T12:51:19.822Z,31.38
2023-03-27T12:54:31.307Z,32.78
2023-03-27T12:57:45.099Z,28.88
2023-03-27T13:01:00.932Z,33.20
2023-03-27T13:04:27.482Z,28.00
2023-03-27T13:07:39.136Z,27.85
2023-03-27T13:11:22.070Z,27.08
2023-03-27T13:14:55.763Z,27.50
2023-03-27T13:18:18.528Z,30.00
2023-03-27T13:21:57.454Z,30.23
2023-03-27T13:25:20.462Z,26.90
2023-03-27T13:28:38.087Z,22.58
2023-03-27T13:31:44.526Z,23.85
2023-03-27T13:35:21.373Z,26.95
2023-03-27T13:38:44.862Z,24.67
2023-03-27T13:41:46.938Z,25.58
2023-03-27T13:45:07.417Z,25.65
2023-03-27T13:48:20.927Z,22.75
2023-03-27T13:51:22.470Z,21.60
2023-03-27T13:54:42.205Z,23.83
2023-03-27T13:58:12.361Z,21.73
2023-03-27T14:01:34.155Z,20.88
2023-03-27T14:04:53.146Z,22.38
2023-03-27T14:08:19.564Z,19.92
2023-03-27T14:12:19.979Z,18.13
2023-03-27T14:15:53.683Z,19.23
2023-03-27T14:19:43.593Z,17.95
2023-03-27T14:23:03.496Z,17.77
2023-03-27T14:26:21.615Z,19.10
